sensor_id;sensor_type;location;lat;lon;timestamp;temperature;humidity
83327;DHT22;73250;55.594;13.020;2024-03-07T00:02:23;22.00;34.50
83327;DHT22;73250;55.594;13.020;2024-03-07T00:04:49;22.00;34.50
83327;DHT22;73250;55.594;13.020;2024-03-07T00:07:17;22.00;34.50
83327;DHT22;73250;55.594;13.020;2024-03-07T00:09:43;22.00;34.50
83327;DHT22;73250;55.594;13.020;2024-03-07T00:12:11;22.00;35.10
83327;DHT22;73250;55.594;13.020;2024-03-07T00:14:38;22.00;34.50
83327;DHT22;73250;55.594;13.020;2024-03-07T00:17:06;22.00;34.50
83327;DHT22;73250;55.594;13.020;2024-03-07T00:19:36;22.00;34.50
83327;DHT22;73250;55.594;13.020;2024-03-07T00:22:03;22.00;34.50
83327;DHT22;73250;55.594;13.020;2024-03-07T00:24:29;22.00;34.40
83327;DHT22;73250;55.594;13.020;2024-03-07T00:26:56;22.00;34.50
83327;DHT22;73250;55.594;13.020;2024-03-07T00:29:23;22.00;34.50
83327;DHT22;73250;55.594;13.020;2024-03-07T00:31:50;22.00;34.40
83327;DHT22;73250;55.594;13.020;2024-03-07T00:34:18;22.00;34.40
83327;DHT22;73250;55.594;13.020;2024-03-07T00:36:45;22.00;34.40
83327;DHT22;73250;55.594;13.020;2024-03-07T00:39:12;22.00;34.40
83327;DHT22;73250;55.594;13.020;2024-03-07T00:41:39;22.00;34.40
83327;DHT22;73250;55.594;13.020;2024-03-07T00:44:06;22.00;34.40
83327;DHT22;73250;55.594;13.020;2024-03-07T00:46:34;22.00;34.40
83327;DHT22;73250;55.594;13.020;2024-03-07T00:49:01;22.00;34.40
83327;DHT22;73250;55.594;13.020;2024-03-07T00:51:29;22.00;34.40
83327;DHT22;73250;55.594;13.020;2024-03-07T00:53:56;22.00;34.40
83327;DHT22;73250;55.594;13.020;2024-03-07T00:56:23;22.00;34.40
83327;DHT22;73250;55.594;13.020;2024-03-07T00:58:50;22.00;34.40
83327;DHT22;73250;55.594;13.020;2024-03-07T01:01:18;21.90;34.40
83327;DHT22;73250;55.594;13.020;2024-03-07T01:03:45;21.90;34.30
83327;DHT22;73250;55.594;13.020;2024-03-07T01:06:12;21.90;34.30
83327;DHT22;73250;55.594;13.020;2024-03-07T01:08:40;21.90;34.30
83327;DHT22;73250;55.594;13.020;2024-03-07T01:11:07;21.90;34.30
83327;DHT22;73250;55.594;13.020;2024-03-07T01:13:37;21.90;34.30
83327;DHT22;73250;55.594;13.020;2024-03-07T01:16:05;21.90;34.30
83327;DHT22;73250;55.594;13.020;2024-03-07T01:18:32;21.90;34.30
83327;DHT22;73250;55.594;13.020;2024-03-07T01:20:59;21.90;34.30
83327;DHT22;73250;55.594;13.020;2024-03-07T01:23:26;21.90;34.30
83327;DHT22;73250;55.594;13.020;2024-03-07T01:25:55;21.90;34.30
83327;DHT22;73250;55.594;13.020;2024-03-07T01:28:22;21.90;34.30
83327;DHT22;73250;55.594;13.020;2024-03-07T01:30:49;21.90;34.30
83327;DHT22;73250;55.594;13.020;2024-03-07T01:33:16;21.90;34.30
83327;DHT22;73250;55.594;13.020;2024-03-07T01:35:42;21.90;34.30
83327;DHT22;73250;55.594;13.020;2024-03-07T01:38:09;21.90;34.30
83327;DHT22;73250;55.594;13.020;2024-03-07T01:40:36;21.90;34.30
83327;DHT22;73250;55.594;13.020;2024-03-07T01:43:05;21.90;34.30
83327;DHT22;73250;55.594;13.020;2024-03-07T01:45:32;21.90;34.30
83327;DHT22;73250;55.594;13.020;2024-03-07T01:47:59;21.90;34.40
83327;DHT22;73250;55.594;13.020;2024-03-07T01:50:26;21.90;34.30
83327;DHT22;73250;55.594;13.020;2024-03-07T01:52:54;21.90;34.30
83327;DHT22;73250;55.594;13.020;2024-03-07T01:55:22;21.90;34.30
83327;DHT22;73250;55.594;13.020;2024-03-07T01:57:49;21.90;34.30
83327;DHT22;73250;55.594;13.020;2024-03-07T02:00:17;21.90;34.30
83327;DHT22;73250;55.594;13.020;2024-03-07T02:02:44;21.90;34.30
83327;DHT22;73250;55.594;13.020;2024-03-07T02:05:12;21.90;34.30
83327;DHT22;73250;55.594;13.020;2024-03-07T02:07:39;21.90;34.30
83327;DHT22;73250;55.594;13.020;2024-03-07T02:10:07;21.90;34.30
83327;DHT22;73250;55.594;13.020;2024-03-07T02:12:34;21.90;34.30
83327;DHT22;73250;55.594;13.020;2024-03-07T02:15:01;21.90;34.30
83327;DHT22;73250;55.594;13.020;2024-03-07T02:17:30;21.80;34.20
83327;DHT22;73250;55.594;13.020;2024-03-07T02:19:57;21.80;34.20
83327;DHT22;73250;55.594;13.020;2024-03-07T02:22:25;21.90;34.20
83327;DHT22;73250;55.594;13.020;2024-03-07T02:24:52;21.90;34.20
83327;DHT22;73250;55.594;13.020;2024-03-07T02:27:19;21.80;34.20
83327;DHT22;73250;55.594;13.020;2024-03-07T02:29:46;21.80;34.20
83327;DHT22;73250;55.594;13.020;2024-03-07T02:32:13;21.80;34.20
83327;DHT22;73250;55.594;13.020;2024-03-07T02:34:39;21.80;34.20
83327;DHT22;73250;55.594;13.020;2024-03-07T02:37:06;21.80;34.20
83327;DHT22;73250;55.594;13.020;2024-03-07T02:39:36;21.80;34.10
83327;DHT22;73250;55.594;13.020;2024-03-07T02:42:02;21.80;34.10
83327;DHT22;73250;55.594;13.020;2024-03-07T02:44:29;21.80;34.20
83327;DHT22;73250;55.594;13.020;2024-03-07T02:46:57;21.80;34.20
83327;DHT22;73250;55.594;13.020;2024-03-07T02:49:24;21.80;34.10
83327;DHT22;73250;55.594;13.020;2024-03-07T02:51:50;21.80;34.20
83327;DHT22;73250;55.594;13.020;2024-03-07T02:54:17;21.80;34.10
83327;DHT22;73250;55.594;13.020;2024-03-07T02:56:45;21.80;34.10
83327;DHT22;73250;55.594;13.020;2024-03-07T02:59:12;21.80;34.20
83327;DHT22;73250;55.594;13.020;2024-03-07T03:01:38;21.80;34.10
83327;DHT22;73250;55.594;13.020;2024-03-07T03:04:06;21.80;34.10
83327;DHT22;73250;55.594;13.020;2024-03-07T03:06:33;21.80;34.10
83327;DHT22;73250;55.594;13.020;2024-03-07T03:09:01;21.80;34.10
83327;DHT22;73250;55.594;13.020;2024-03-07T03:11:30;21.80;34.10
83327;DHT22;73250;55.594;13.020;2024-03-07T03:13:58;21.80;34.10
83327;DHT22;73250;55.594;13.020;2024-03-07T03:16:25;21.80;34.20
83327;DHT22;73250;55.594;13.020;2024-03-07T03:18:51;21.80;34.10
83327;DHT22;73250;55.594;13.020;2024-03-07T03:21:19;21.80;34.20
83327;DHT22;73250;55.594;13.020;2024-03-07T03:23:46;21.80;34.10
83327;DHT22;73250;55.594;13.020;2024-03-07T03:26:14;21.80;34.20
83327;DHT22;73250;55.594;13.020;2024-03-07T03:28:41;21.80;34.10
83327;DHT22;73250;55.594;13.020;2024-03-07T03:31:09;21.70;34.00
83327;DHT22;73250;55.594;13.020;2024-03-07T03:33:39;21.80;34.10
83327;DHT22;73250;55.594;13.020;2024-03-07T03:36:06;21.70;34.10
83327;DHT22;73250;55.594;13.020;2024-03-07T03:38:33;21.70;34.10
83327;DHT22;73250;55.594;13.020;2024-03-07T03:41:00;21.70;34.00
83327;DHT22;73250;55.594;13.020;2024-03-07T03:43:27;21.70;34.10
83327;DHT22;73250;55.594;13.020;2024-03-07T03:45:53;21.70;34.80
83327;DHT22;73250;55.594;13.020;2024-03-07T03:48:21;21.70;34.10
83327;DHT22;73250;55.594;13.020;2024-03-07T03:50:48;21.80;34.20
83327;DHT22;73250;55.594;13.020;2024-03-07T03:53:15;21.70;34.10
83327;DHT22;73250;55.594;13.020;2024-03-07T03:55:43;21.70;34.10
83327;DHT22;73250;55.594;13.020;2024-03-07T03:58:09;21.70;34.10
83327;DHT22;73250;55.594;13.020;2024-03-07T04:00:36;21.70;34.80
83327;DHT22;73250;55.594;13.020;2024-03-07T04:03:04;21.70;34.10
83327;DHT22;73250;55.594;13.020;2024-03-07T04:05:34;21.70;34.10
83327;DHT22;73250;55.594;13.020;2024-03-07T04:08:00;21.70;34.10
83327;DHT22;73250;55.594;13.020;2024-03-07T04:10:27;21.70;34.10
83327;DHT22;73250;55.594;13.020;2024-03-07T04:12:54;21.70;34.10
83327;DHT22;73250;55.594;13.020;2024-03-07T04:15:21;21.70;34.10
83327;DHT22;73250;55.594;13.020;2024-03-07T04:17:49;21.70;34.10
83327;DHT22;73250;55.594;13.020;2024-03-07T04:20:15;21.70;34.10
83327;DHT22;73250;55.594;13.020;2024-03-07T04:22:44;21.70;34.10
83327;DHT22;73250;55.594;13.020;2024-03-07T04:25:11;21.70;34.10
83327;DHT22;73250;55.594;13.020;2024-03-07T04:27:38;21.70;34.20
83327;DHT22;73250;55.594;13.020;2024-03-07T04:30:06;21.70;34.10
83327;DHT22;73250;55.594;13.020;2024-03-07T04:32:36;21.70;34.10
83327;DHT22;73250;55.594;13.020;2024-03-07T04:35:03;21.70;34.20
83327;DHT22;73250;55.594;13.020;2024-03-07T04:37:33;21.70;34.20
83327;DHT22;73250;55.594;13.020;2024-03-07T04:40:03;21.70;34.20
83327;DHT22;73250;55.594;13.020;2024-03-07T04:42:36;21.70;34.20
83327;DHT22;73250;55.594;13.020;2024-03-07T04:45:03;21.70;34.20
83327;DHT22;73250;55.594;13.020;2024-03-07T04:47:31;21.70;34.20
83327;DHT22;73250;55.594;13.020;2024-03-07T04:49:57;21.70;34.20
83327;DHT22;73250;55.594;13.020;2024-03-07T04:52:24;21.70;34.20
83327;DHT22;73250;55.594;13.020;2024-03-07T04:54:51;21.70;34.20
83327;DHT22;73250;55.594;13.020;2024-03-07T04:57:19;21.70;34.10
83327;DHT22;73250;55.594;13.020;2024-03-07T04:59:46;21.70;34.10
83327;DHT22;73250;55.594;13.020;2024-03-07T05:02:13;21.70;34.10
83327;DHT22;73250;55.594;13.020;2024-03-07T05:04:39;21.70;34.20
83327;DHT22;73250;55.594;13.020;2024-03-07T05:07:06;21.70;34.10
83327;DHT22;73250;55.594;13.020;2024-03-07T05:09:33;21.70;34.10
83327;DHT22;73250;55.594;13.020;2024-03-07T05:12:00;21.70;34.10
83327;DHT22;73250;55.594;13.020;2024-03-07T05:14:29;21.70;34.10
83327;DHT22;73250;55.594;13.020;2024-03-07T05:16:55;21.70;34.20
83327;DHT22;73250;55.594;13.020;2024-03-07T05:19:34;21.70;34.10
83327;DHT22;73250;55.594;13.020;2024-03-07T05:22:01;21.70;34.20
83327;DHT22;73250;55.594;13.020;2024-03-07T05:24:30;21.70;34.10
83327;DHT22;73250;55.594;13.020;2024-03-07T05:26:58;21.70;34.20
83327;DHT22;73250;55.594;13.020;2024-03-07T05:29:24;21.70;34.10
83327;DHT22;73250;55.594;13.020;2024-03-07T05:31:53;21.70;34.10
83327;DHT22;73250;55.594;13.020;2024-03-07T05:34:20;21.70;34.10
83327;DHT22;73250;55.594;13.020;2024-03-07T05:36:49;21.70;34.20
83327;DHT22;73250;55.594;13.020;2024-03-07T05:39:17;21.70;34.10
83327;DHT22;73250;55.594;13.020;2024-03-07T05:41:45;21.70;34.10
83327;DHT22;73250;55.594;13.020;2024-03-07T05:44:12;21.70;34.10
83327;DHT22;73250;55.594;13.020;2024-03-07T05:46:39;21.60;34.10
83327;DHT22;73250;55.594;13.020;2024-03-07T05:49:13;21.60;34.10
83327;DHT22;73250;55.594;13.020;2024-03-07T05:51:39;21.60;34.10
83327;DHT22;73250;55.594;13.020;2024-03-07T05:54:07;21.60;34.10
83327;DHT22;73250;55.594;13.020;2024-03-07T05:56:34;21.60;34.10
83327;DHT22;73250;55.594;13.020;2024-03-07T05:59:02;21.40;34.00
83327;DHT22;73250;55.594;13.020;2024-03-07T06:01:30;21.60;34.10
83327;DHT22;73250;55.594;13.020;2024-03-07T06:03:59;21.60;34.10
83327;DHT22;73250;55.594;13.020;2024-03-07T06:06:28;21.60;34.10
83327;DHT22;73250;55.594;13.020;2024-03-07T06:08:57;21.60;34.10
83327;DHT22;73250;55.594;13.020;2024-03-07T06:11:24;21.60;34.10
83327;DHT22;73250;55.594;13.020;2024-03-07T06:13:51;21.60;34.10
83327;DHT22;73250;55.594;13.020;2024-03-07T06:16:18;21.60;34.10
83327;DHT22;73250;55.594;13.020;2024-03-07T06:18:45;21.60;34.10
83327;DHT22;73250;55.594;13.020;2024-03-07T06:21:12;21.60;34.10
83327;DHT22;73250;55.594;13.020;2024-03-07T06:23:41;21.60;34.00
83327;DHT22;73250;55.594;13.020;2024-03-07T06:26:13;21.60;34.10
83327;DHT22;73250;55.594;13.020;2024-03-07T06:28:42;21.60;34.00
83327;DHT22;73250;55.594;13.020;2024-03-07T06:31:10;21.60;34.10
83327;DHT22;73250;55.594;13.020;2024-03-07T06:33:37;21.60;34.10
83327;DHT22;73250;55.594;13.020;2024-03-07T06:36:04;21.60;34.10
83327;DHT22;73250;55.594;13.020;2024-03-07T06:38:31;21.60;34.00
83327;DHT22;73250;55.594;13.020;2024-03-07T06:40:59;21.60;34.00
83327;DHT22;73250;55.594;13.020;2024-03-07T06:43:26;21.60;34.10
83327;DHT22;73250;55.594;13.020;2024-03-07T06:45:54;21.60;34.10
83327;DHT22;73250;55.594;13.020;2024-03-07T06:48:20;21.60;34.10
83327;DHT22;73250;55.594;13.020;2024-03-07T06:50:47;21.60;34.10
83327;DHT22;73250;55.594;13.020;2024-03-07T06:53:14;21.60;34.00
83327;DHT22;73250;55.594;13.020;2024-03-07T06:55:41;21.60;34.70
83327;DHT22;73250;55.594;13.020;2024-03-07T06:58:10;21.60;34.10
83327;DHT22;73250;55.594;13.020;2024-03-07T07:00:36;21.60;34.00
83327;DHT22;73250;55.594;13.020;2024-03-07T07:03:05;21.60;34.10
83327;DHT22;73250;55.594;13.020;2024-03-07T07:05:32;21.60;34.10
83327;DHT22;73250;55.594;13.020;2024-03-07T07:07:59;21.60;34.10
83327;DHT22;73250;55.594;13.020;2024-03-07T07:10:26;21.60;34.10
83327;DHT22;73250;55.594;13.020;2024-03-07T07:12:53;21.60;34.20
83327;DHT22;73250;55.594;13.020;2024-03-07T07:15:21;21.60;34.20
83327;DHT22;73250;55.594;13.020;2024-03-07T07:17:48;21.60;34.20
83327;DHT22;73250;55.594;13.020;2024-03-07T07:20:16;21.60;34.20
83327;DHT22;73250;55.594;13.020;2024-03-07T07:22:44;21.50;34.20
83327;DHT22;73250;55.594;13.020;2024-03-07T07:25:12;21.60;34.20
83327;DHT22;73250;55.594;13.020;2024-03-07T07:27:40;21.60;34.20
83327;DHT22;73250;55.594;13.020;2024-03-07T07:30:09;21.60;34.20
83327;DHT22;73250;55.594;13.020;2024-03-07T07:32:37;21.60;34.20
83327;DHT22;73250;55.594;13.020;2024-03-07T07:35:04;21.50;34.20
83327;DHT22;73250;55.594;13.020;2024-03-07T07:37:35;21.50;34.20
83327;DHT22;73250;55.594;13.020;2024-03-07T07:40:02;21.50;34.20
83327;DHT22;73250;55.594;13.020;2024-03-07T07:42:29;21.50;34.30
83327;DHT22;73250;55.594;13.020;2024-03-07T07:44:55;21.50;34.30
83327;DHT22;73250;55.594;13.020;2024-03-07T07:47:22;21.50;34.30
83327;DHT22;73250;55.594;13.020;2024-03-07T07:49:50;21.50;34.30
83327;DHT22;73250;55.594;13.020;2024-03-07T07:52:17;21.50;34.30
83327;DHT22;73250;55.594;13.020;2024-03-07T07:54:44;21.50;34.40
83327;DHT22;73250;55.594;13.020;2024-03-07T07:57:10;21.50;34.40
83327;DHT22;73250;55.594;13.020;2024-03-07T07:59:37;21.50;34.60
83327;DHT22;73250;55.594;13.020;2024-03-07T08:02:04;21.60;34.90
83327;DHT22;73250;55.594;13.020;2024-03-07T08:04:31;21.50;34.90
83327;DHT22;73250;55.594;13.020;2024-03-07T08:07:00;21.50;34.70
83327;DHT22;73250;55.594;13.020;2024-03-07T08:09:27;21.60;34.60
83327;DHT22;73250;55.594;13.020;2024-03-07T08:11:54;21.60;34.60
83327;DHT22;73250;55.594;13.020;2024-03-07T08:14:21;21.60;34.70
83327;DHT22;73250;55.594;13.020;2024-03-07T08:16:49;21.60;34.80
83327;DHT22;73250;55.594;13.020;2024-03-07T08:19:16;21.60;34.90
83327;DHT22;73250;55.594;13.020;2024-03-07T08:21:43;21.60;34.90
83327;DHT22;73250;55.594;13.020;2024-03-07T08:24:11;21.60;35.10
83327;DHT22;73250;55.594;13.020;2024-03-07T08:26:38;21.60;35.30
83327;DHT22;73250;55.594;13.020;2024-03-07T08:29:10;21.70;35.30
83327;DHT22;73250;55.594;13.020;2024-03-07T08:31:38;21.70;34.90
83327;DHT22;73250;55.594;13.020;2024-03-07T08:34:05;21.70;35.30
83327;DHT22;73250;55.594;13.020;2024-03-07T08:36:31;21.70;35.20
83327;DHT22;73250;55.594;13.020;2024-03-07T08:38:58;21.70;35.30
83327;DHT22;73250;55.594;13.020;2024-03-07T08:41:26;21.70;36.10
83327;DHT22;73250;55.594;13.020;2024-03-07T08:43:53;21.70;35.40
83327;DHT22;73250;55.594;13.020;2024-03-07T08:46:19;21.70;35.50
83327;DHT22;73250;55.594;13.020;2024-03-07T08:48:46;21.70;35.80
83327;DHT22;73250;55.594;13.020;2024-03-07T08:51:14;21.80;36.10
83327;DHT22;73250;55.594;13.020;2024-03-07T08:53:41;21.80;36.00
83327;DHT22;73250;55.594;13.020;2024-03-07T08:56:08;21.80;35.90
83327;DHT22;73250;55.594;13.020;2024-03-07T08:58:36;21.80;35.90
83327;DHT22;73250;55.594;13.020;2024-03-07T09:01:03;21.80;36.30
83327;DHT22;73250;55.594;13.020;2024-03-07T09:03:29;21.80;36.00
83327;DHT22;73250;55.594;13.020;2024-03-07T09:05:56;21.80;35.90
83327;DHT22;73250;55.594;13.020;2024-03-07T09:08:23;21.80;35.80
83327;DHT22;73250;55.594;13.020;2024-03-07T09:10:50;21.80;35.70
83327;DHT22;73250;55.594;13.020;2024-03-07T09:13:20;21.80;35.70
83327;DHT22;73250;55.594;13.020;2024-03-07T09:15:48;21.80;35.80
83327;DHT22;73250;55.594;13.020;2024-03-07T09:18:15;21.80;35.70
83327;DHT22;73250;55.594;13.020;2024-03-07T09:20:41;21.80;35.90
83327;DHT22;73250;55.594;13.020;2024-03-07T09:23:08;21.80;35.90
83327;DHT22;73250;55.594;13.020;2024-03-07T09:25:35;21.90;35.90
83327;DHT22;73250;55.594;13.020;2024-03-07T09:28:02;21.90;35.90
83327;DHT22;73250;55.594;13.020;2024-03-07T09:30:29;21.90;36.00
83327;DHT22;73250;55.594;13.020;2024-03-07T09:32:58;21.90;36.10
83327;DHT22;73250;55.594;13.020;2024-03-07T09:35:25;21.90;36.00
83327;DHT22;73250;55.594;13.020;2024-03-07T09:37:52;21.90;35.90
83327;DHT22;73250;55.594;13.020;2024-03-07T09:40:19;21.90;35.90
83327;DHT22;73250;55.594;13.020;2024-03-07T09:42:50;21.90;35.90
83327;DHT22;73250;55.594;13.020;2024-03-07T09:45:19;21.90;35.90
83327;DHT22;73250;55.594;13.020;2024-03-07T09:47:47;21.90;35.90
83327;DHT22;73250;55.594;13.020;2024-03-07T09:50:17;21.90;35.80
83327;DHT22;73250;55.594;13.020;2024-03-07T09:52:48;21.90;35.80
83327;DHT22;73250;55.594;13.020;2024-03-07T09:55:16;21.90;35.80
83327;DHT22;73250;55.594;13.020;2024-03-07T09:57:43;21.90;35.80
83327;DHT22;73250;55.594;13.020;2024-03-07T10:00:13;21.90;35.70
83327;DHT22;73250;55.594;13.020;2024-03-07T10:02:49;21.90;35.80
83327;DHT22;73250;55.594;13.020;2024-03-07T10:05:22;22.00;35.90
83327;DHT22;73250;55.594;13.020;2024-03-07T10:07:51;22.00;35.80
83327;DHT22;73250;55.594;13.020;2024-03-07T10:10:18;22.00;35.80
83327;DHT22;73250;55.594;13.020;2024-03-07T10:12:44;22.00;35.80
83327;DHT22;73250;55.594;13.020;2024-03-07T10:15:12;22.00;35.70
83327;DHT22;73250;55.594;13.020;2024-03-07T10:17:39;22.00;35.70
83327;DHT22;73250;55.594;13.020;2024-03-07T10:20:07;22.00;35.60
83327;DHT22;73250;55.594;13.020;2024-03-07T10:22:39;22.00;35.80
83327;DHT22;73250;55.594;13.020;2024-03-07T10:25:06;22.00;35.90
83327;DHT22;73250;55.594;13.020;2024-03-07T10:27:36;22.00;35.80
83327;DHT22;73250;55.594;13.020;2024-03-07T10:30:03;22.00;35.70
83327;DHT22;73250;55.594;13.020;2024-03-07T10:32:33;22.00;35.60
83327;DHT22;73250;55.594;13.020;2024-03-07T10:34:59;22.00;35.40
83327;DHT22;73250;55.594;13.020;2024-03-07T10:37:28;22.00;35.40
83327;DHT22;73250;55.594;13.020;2024-03-07T10:39:57;22.00;35.40
83327;DHT22;73250;55.594;13.020;2024-03-07T10:42:28;22.10;35.70
83327;DHT22;73250;55.594;13.020;2024-03-07T10:45:03;22.10;35.90
83327;DHT22;73250;55.594;13.020;2024-03-07T10:47:31;22.10;35.90
83327;DHT22;73250;55.594;13.020;2024-03-07T10:50:04;22.00;35.90
83327;DHT22;73250;55.594;13.020;2024-03-07T10:52:46;22.10;36.00
83327;DHT22;73250;55.594;13.020;2024-03-07T10:55:23;22.10;35.90
83327;DHT22;73250;55.594;13.020;2024-03-07T10:57:51;22.10;36.50
83327;DHT22;73250;55.594;13.020;2024-03-07T11:00:19;22.10;35.60
83327;DHT22;73250;55.594;13.020;2024-03-07T11:03:01;22.10;35.60
83327;DHT22;73250;55.594;13.020;2024-03-07T11:05:33;22.10;35.70
83327;DHT22;73250;55.594;13.020;2024-03-07T11:08:01;22.10;35.60
83327;DHT22;73250;55.594;13.020;2024-03-07T11:10:33;22.10;35.50
83327;DHT22;73250;55.594;13.020;2024-03-07T11:13:02;22.10;35.50
83327;DHT22;73250;55.594;13.020;2024-03-07T11:15:29;22.10;35.60
83327;DHT22;73250;55.594;13.020;2024-03-07T11:17:57;22.10;35.60
83327;DHT22;73250;55.594;13.020;2024-03-07T11:20:25;22.10;35.50
83327;DHT22;73250;55.594;13.020;2024-03-07T11:22:52;22.20;35.80
83327;DHT22;73250;55.594;13.020;2024-03-07T11:25:21;22.20;35.70
83327;DHT22;73250;55.594;13.020;2024-03-07T11:27:56;22.20;35.80
83327;DHT22;73250;55.594;13.020;2024-03-07T11:30:23;22.10;35.50
83327;DHT22;73250;55.594;13.020;2024-03-07T11:32:51;22.10;35.80
83327;DHT22;73250;55.594;13.020;2024-03-07T11:35:19;22.20;35.90
83327;DHT22;73250;55.594;13.020;2024-03-07T11:37:56;22.20;35.80
83327;DHT22;73250;55.594;13.020;2024-03-07T11:40:53;22.10;35.80
83327;DHT22;73250;55.594;13.020;2024-03-07T11:43:26;22.20;35.90
83327;DHT22;73250;55.594;13.020;2024-03-07T11:45:53;22.10;35.90
83327;DHT22;73250;55.594;13.020;2024-03-07T11:48:23;22.20;36.00
83327;DHT22;73250;55.594;13.020;2024-03-07T11:50:50;22.20;36.00
83327;DHT22;73250;55.594;13.020;2024-03-07T11:53:17;22.20;36.10
83327;DHT22;73250;55.594;13.020;2024-03-07T11:55:43;22.20;36.10
83327;DHT22;73250;55.594;13.020;2024-03-07T11:58:14;22.20;36.40
83327;DHT22;73250;55.594;13.020;2024-03-07T12:00:44;22.20;36.30
83327;DHT22;73250;55.594;13.020;2024-03-07T12:03:11;22.30;36.40
83327;DHT22;73250;55.594;13.020;2024-03-07T12:05:41;22.30;36.40
83327;DHT22;73250;55.594;13.020;2024-03-07T12:08:10;22.30;36.40
83327;DHT22;73250;55.594;13.020;2024-03-07T12:10:36;22.30;36.50
83327;DHT22;73250;55.594;13.020;2024-03-07T12:13:07;22.40;36.60
83327;DHT22;73250;55.594;13.020;2024-03-07T12:15:33;22.30;36.70
83327;DHT22;73250;55.594;13.020;2024-03-07T12:18:03;22.40;37.00
83327;DHT22;73250;55.594;13.020;2024-03-07T12:20:35;22.40;36.80
83327;DHT22;73250;55.594;13.020;2024-03-07T12:23:03;22.40;36.70
83327;DHT22;73250;55.594;13.020;2024-03-07T12:25:33;22.40;36.70
83327;DHT22;73250;55.594;13.020;2024-03-07T12:28:03;22.40;36.90
83327;DHT22;73250;55.594;13.020;2024-03-07T12:30:33;22.40;36.90
83327;DHT22;73250;55.594;13.020;2024-03-07T12:33:02;22.50;36.90
83327;DHT22;73250;55.594;13.020;2024-03-07T12:35:32;22.50;36.90
83327;DHT22;73250;55.594;13.020;2024-03-07T12:37:59;22.50;36.80
83327;DHT22;73250;55.594;13.020;2024-03-07T12:40:29;22.50;36.80
83327;DHT22;73250;55.594;13.020;2024-03-07T12:42:59;22.50;36.80
83327;DHT22;73250;55.594;13.020;2024-03-07T12:45:28;22.50;37.00
83327;DHT22;73250;55.594;13.020;2024-03-07T12:47:55;22.50;37.00
83327;DHT22;73250;55.594;13.020;2024-03-07T12:50:23;22.50;37.00
83327;DHT22;73250;55.594;13.020;2024-03-07T12:52:49;22.50;37.10
83327;DHT22;73250;55.594;13.020;2024-03-07T12:55:17;22.60;37.30
83327;DHT22;73250;55.594;13.020;2024-03-07T12:57:49;22.60;37.40
83327;DHT22;73250;55.594;13.020;2024-03-07T13:00:17;22.60;37.30
83327;DHT22;73250;55.594;13.020;2024-03-07T13:02:46;22.60;37.20
83327;DHT22;73250;55.594;13.020;2024-03-07T13:05:13;22.60;37.20
83327;DHT22;73250;55.594;13.020;2024-03-07T13:07:46;22.60;37.10
83327;DHT22;73250;55.594;13.020;2024-03-07T13:10:13;22.60;37.00
83327;DHT22;73250;55.594;13.020;2024-03-07T13:12:41;22.60;37.10
83327;DHT22;73250;55.594;13.020;2024-03-07T13:15:11;22.70;37.20
83327;DHT22;73250;55.594;13.020;2024-03-07T13:17:38;22.70;37.20
83327;DHT22;73250;55.594;13.020;2024-03-07T13:20:05;22.70;37.10
83327;DHT22;73250;55.594;13.020;2024-03-07T13:22:38;22.70;37.20
83327;DHT22;73250;55.594;13.020;2024-03-07T13:25:06;22.70;37.20
83327;DHT22;73250;55.594;13.020;2024-03-07T13:27:40;22.70;37.30
83327;DHT22;73250;55.594;13.020;2024-03-07T13:30:10;22.70;37.30
83327;DHT22;73250;55.594;13.020;2024-03-07T13:32:49;22.70;37.20
83327;DHT22;73250;55.594;13.020;2024-03-07T13:35:16;22.70;37.10
83327;DHT22;73250;55.594;13.020;2024-03-07T13:37:45;22.80;37.20
83327;DHT22;73250;55.594;13.020;2024-03-07T13:40:14;22.70;37.00
83327;DHT22;73250;55.594;13.020;2024-03-07T13:42:49;22.80;37.10
83327;DHT22;73250;55.594;13.020;2024-03-07T13:45:18;22.80;37.00
83327;DHT22;73250;55.594;13.020;2024-03-07T13:47:46;22.80;36.90
83327;DHT22;73250;55.594;13.020;2024-03-07T13:50:14;22.80;36.90
83327;DHT22;73250;55.594;13.020;2024-03-07T13:52:40;22.70;36.80
83327;DHT22;73250;55.594;13.020;2024-03-07T13:55:23;22.80;37.10
83327;DHT22;73250;55.594;13.020;2024-03-07T13:58:02;22.80;36.90
83327;DHT22;73250;55.594;13.020;2024-03-07T14:00:46;22.70;37.00
83327;DHT22;73250;55.594;13.020;2024-03-07T14:03:48;22.70;36.90
83327;DHT22;73250;55.594;13.020;2024-03-07T14:06:25;22.80;37.00
83327;DHT22;73250;55.594;13.020;2024-03-07T14:09:30;22.70;37.10
83327;DHT22;73250;55.594;13.020;2024-03-07T14:15:42;22.70;37.00
83327;DHT22;73250;55.594;13.020;2024-03-07T14:21:29;22.70;36.90
83327;DHT22;73250;55.594;13.020;2024-03-07T14:24:36;22.70;37.00
83327;DHT22;73250;55.594;13.020;2024-03-07T14:27:22;22.70;37.10
83327;DHT22;73250;55.594;13.020;2024-03-07T14:29:58;22.70;37.10
83327;DHT22;73250;55.594;13.020;2024-03-07T14:32:32;22.70;37.10
83327;DHT22;73250;55.594;13.020;2024-03-07T14:35:02;22.70;37.20
83327;DHT22;73250;55.594;13.020;2024-03-07T14:37:35;22.70;36.90
83327;DHT22;73250;55.594;13.020;2024-03-07T14:40:09;22.80;37.10
83327;DHT22;73250;55.594;13.020;2024-03-07T14:42:42;22.80;37.10
83327;DHT22;73250;55.594;13.020;2024-03-07T14:45:11;22.80;37.30
83327;DHT22;73250;55.594;13.020;2024-03-07T14:47:38;22.80;37.10
83327;DHT22;73250;55.594;13.020;2024-03-07T14:50:06;22.80;36.90
83327;DHT22;73250;55.594;13.020;2024-03-07T14:52:35;22.80;37.10
83327;DHT22;73250;55.594;13.020;2024-03-07T14:55:06;22.80;37.10
83327;DHT22;73250;55.594;13.020;2024-03-07T14:57:33;22.80;37.00
83327;DHT22;73250;55.594;13.020;2024-03-07T15:00:01;22.80;37.00
83327;DHT22;73250;55.594;13.020;2024-03-07T15:02:28;22.80;37.10
83327;DHT22;73250;55.594;13.020;2024-03-07T15:04:55;22.80;37.00
83327;DHT22;73250;55.594;13.020;2024-03-07T15:07:22;22.80;37.10
83327;DHT22;73250;55.594;13.020;2024-03-07T15:09:50;22.80;37.10
83327;DHT22;73250;55.594;13.020;2024-03-07T15:12:16;22.90;37.00
83327;DHT22;73250;55.594;13.020;2024-03-07T15:14:43;22.90;37.10
83327;DHT22;73250;55.594;13.020;2024-03-07T15:17:11;22.90;37.20
83327;DHT22;73250;55.594;13.020;2024-03-07T15:19:38;22.90;37.20
83327;DHT22;73250;55.594;13.020;2024-03-07T15:22:05;22.80;37.20
83327;DHT22;73250;55.594;13.020;2024-03-07T15:24:32;22.90;37.20
83327;DHT22;73250;55.594;13.020;2024-03-07T15:27:01;22.90;37.20
83327;DHT22;73250;55.594;13.020;2024-03-07T15:29:28;22.80;37.10
83327;DHT22;73250;55.594;13.020;2024-03-07T15:31:55;22.90;37.10